createdAt,value
2018-11-04T00:00:09.512Z,11.17
2018-11-04T00:02:39.388Z,11.17
2018-11-04T00:05:09.680Z,10.50
2018-11-04T00:07:39.695Z,10.80
2018-11-04T00:10:10.669Z,11.13
2018-11-04T00:12:41.455Z,9.93
2018-11-04T00:15:12.688Z,11.10
2018-11-04T00:17:42.889Z,11.53
2018-11-04T00:20:14.110Z,12.83
2018-11-04T00:22:45.567Z,12.30
2018-11-04T00:25:16.026Z,12.50
2018-11-04T00:27:46.532Z,12.40
2018-11-04T00:30:17.010Z,11.23
2018-11-04T00:32:47.026Z,11.60
2018-11-04T00:35:17.127Z,11.90
2018-11-04T00:37:47.124Z,12.10
2018-11-04T00:40:17.248Z,12.40
2018-11-04T00:42:48.675Z,11.73
2018-11-04T00:45:19.463Z,12.33
2018-11-04T00:47:49.796Z,12.10
2018-11-04T00:50:19.928Z,11.73
2018-11-04T00:52:50.140Z,12.27
2018-11-04T00:55:20.060Z,12.70
2018-11-04T00:57:49.726Z,11.20
2018-11-04T01:00:21.042Z,12.60
2018-11-04T01:02:51.655Z,11.50
2018-11-04T01:05:22.831Z,12.87
2018-11-04T01:07:53.575Z,12.13
2018-11-04T01:10:23.384Z,11.90
2018-11-04T01:12:53.330Z,12.17
2018-11-04T01:15:23.742Z,11.50
2018-11-04T01:17:53.563Z,11.33
2018-11-04T01:20:24.354Z,11.70
2018-11-04T01:22:54.211Z,12.40
2018-11-04T01:25:24.230Z,11.90
2018-11-04T01:27:54.222Z,12.60
2018-11-04T01:30:24.004Z,13.20
2018-11-04T01:32:53.870Z,12.83
2018-11-04T01:35:23.922Z,13.23
2018-11-04T01:37:53.807Z,11.50
2018-11-04T01:40:24.848Z,12.97
2018-11-04T01:42:54.763Z,12.00
2018-11-04T01:45:24.776Z,12.83
2018-11-04T01:47:54.899Z,11.90
2018-11-04T01:50:24.655Z,12.17
2018-11-04T01:52:54.764Z,12.60
2018-11-04T01:55:24.563Z,13.80
2018-11-04T01:57:54.356Z,11.37
2018-11-04T02:00:24.088Z,12.90
2018-11-04T02:02:54.665Z,12.70
2018-11-04T02:05:24.429Z,11.93
2018-11-04T02:07:54.133Z,11.30
2018-11-04T02:10:23.988Z,12.27
2018-11-04T02:12:53.988Z,11.63
2018-11-04T02:15:23.724Z,12.10
2018-11-04T02:17:53.878Z,11.83
2018-11-04T02:20:23.816Z,13.60
2018-11-04T02:22:53.644Z,11.53
2018-11-04T02:25:23.540Z,13.33
2018-11-04T02:27:53.760Z,12.87
2018-11-04T02:30:23.799Z,12.00
2018-11-04T02:32:53.970Z,12.33
2018-11-04T02:35:24.124Z,12.17
2018-11-04T02:37:53.795Z,11.77
2018-11-04T02:40:23.655Z,13.00
2018-11-04T02:42:53.987Z,11.97
2018-11-04T02:45:24.008Z,12.30
2018-11-04T02:47:55.985Z,13.00
2018-11-04T02:50:26.061Z,11.93
2018-11-04T02:52:56.902Z,13.53
2018-11-04T02:55:26.830Z,11.03
2018-11-04T02:57:57.430Z,12.10
2018-11-04T03:00:27.162Z,11.77
2018-11-04T03:02:57.066Z,12.40
2018-11-04T03:05:27.191Z,12.37
2018-11-04T03:07:57.075Z,12.63
2018-11-04T03:10:27.090Z,12.50
2018-11-04T03:12:57.683Z,11.47
2018-11-04T03:15:28.019Z,12.10
2018-11-04T03:17:57.786Z,12.20
2018-11-04T03:20:27.820Z,11.40
2018-11-04T03:22:57.507Z,12.93
2018-11-04T03:25:27.567Z,13.40
2018-11-04T03:27:58.394Z,13.00
2018-11-04T03:30:28.320Z,10.83
2018-11-04T03:32:58.178Z,11.67
2018-11-04T03:35:28.050Z,12.50
2018-11-04T03:37:58.063Z,12.53
2018-11-04T03:40:28.007Z,13.07
2018-11-04T03:42:58.348Z,11.77
2018-11-04T03:45:28.599Z,13.23
2018-11-04T03:47:58.556Z,13.43
2018-11-04T03:50:28.848Z,12.43
2018-11-04T03:53:02.791Z,13.00
2018-11-04T03:55:32.879Z,13.10
2018-11-04T03:58:03.222Z,13.57
2018-11-04T04:00:33.155Z,13.27
2018-11-04T04:03:03.127Z,14.10
2018-11-04T04:05:33.448Z,13.93
2018-11-04T04:08:04.116Z,14.97
2018-11-04T04:10:33.808Z,14.30
2018-11-04T04:13:04.359Z,13.57
2018-11-04T04:15:34.434Z,13.50
2018-11-04T04:18:04.458Z,13.80
2018-11-04T04:20:35.202Z,15.10
2018-11-04T04:23:04.937Z,14.67
2018-11-04T04:25:34.838Z,13.07
2018-11-04T04:28:04.746Z,14.40
2018-11-04T04:30:34.916Z,13.27
2018-11-04T04:33:04.943Z,13.30
2018-11-04T04:35:34.953Z,14.90
2018-11-04T04:38:05.073Z,14.90
2018-11-04T04:40:36.043Z,14.10
2018-11-04T04:43:06.213Z,13.07
2018-11-04T04:45:36.693Z,15.00
2018-11-04T04:48:06.699Z,16.13
2018-11-04T04:50:36.656Z,15.17
2018-11-04T04:53:06.772Z,14.37
2018-11-04T04:55:36.555Z,14.70
2018-11-04T04:58:06.487Z,14.90
2018-11-04T05:00:37.122Z,14.23
2018-11-04T05:03:06.984Z,16.13
2018-11-04T05:05:36.999Z,14.50
2018-11-04T05:08:07.414Z,14.53
2018-11-04T05:10:37.420Z,13.47
2018-11-04T05:13:07.251Z,14.63
2018-11-04T05:15:37.726Z,15.40
2018-11-04T05:18:07.961Z,13.77
2018-11-04T05:20:37.987Z,14.03
2018-11-04T05:23:09.695Z,14.73
2018-11-04T05:25:39.439Z,15.27
2018-11-04T05:28:09.690Z,13.43
2018-11-04T05:30:39.873Z,16.20
2018-11-04T05:33:09.698Z,14.40
2018-11-04T05:35:40.079Z,15.67
2018-11-04T05:38:10.328Z,16.00
2018-11-04T05:40:40.443Z,15.57
2018-11-04T05:43:10.338Z,16.07
2018-11-04T05:45:40.510Z,15.43
2018-11-04T05:48:10.897Z,15.77
2018-11-04T05:50:40.865Z,15.10
2018-11-04T05:53:11.454Z,15.70
2018-11-04T05:55:41.503Z,15.97
2018-11-04T05:58:11.594Z,16.60
2018-11-04T06:00:42.147Z,15.23
2018-11-04T06:03:12.603Z,16.47
2018-11-04T06:05:42.833Z,14.73
2018-11-04T06:08:12.960Z,16.20
2018-11-04T06:10:43.064Z,16.07
2018-11-04T06:13:13.585Z,15.10
2018-11-04T06:15:43.969Z,15.87
2018-11-04T06:18:14.088Z,16.73
2018-11-04T06:20:44.351Z,15.73
2018-11-04T06:23:14.539Z,15.57
2018-11-04T06:25:44.455Z,15.53
2018-11-04T06:28:14.859Z,16.07
2018-11-04T06:30:45.775Z,14.60
2018-11-04T06:33:16.003Z,14.00
2018-11-04T06:35:46.091Z,16.60
2018-11-04T06:38:16.507Z,17.57
2018-11-04T06:40:46.822Z,16.23
2018-11-04T06:43:17.376Z,16.13
2018-11-04T06:45:47.943Z,16.77
2018-11-04T06:48:18.150Z,16.80
2018-11-04T06:50:48.703Z,18.10
2018-11-04T06:53:19.706Z,16.67
2018-11-04T06:55:50.547Z,16.63
2018-11-04T06:58:22.018Z,17.37
2018-11-04T07:00:55.834Z,17.37
2018-11-04T07:03:30.630Z,17.97
2018-11-04T07:06:02.036Z,19.20
2018-11-04T07:08:33.705Z,19.30
2018-11-04T07:11:08.102Z,18.63
2018-11-04T07:13:41.166Z,18.10
2018-11-04T07:16:13.600Z,18.30
2018-11-04T07:18:43.634Z,19.07
2018-11-04T07:21:13.647Z,17.97
2018-11-04T07:23:43.978Z,17.73
2018-11-04T07:26:14.899Z,17.90
2018-11-04T07:28:45.098Z,17.23
2018-11-04T07:31:15.887Z,19.30
2018-11-04T07:33:46.878Z,20.33
2018-11-04T07:36:17.151Z,19.13
2018-11-04T07:38:47.264Z,19.20
2018-11-04T07:41:17.890Z,17.37
2018-11-04T07:43:47.939Z,18.37
2018-11-04T07:46:18.463Z,19.60
2018-11-04T07:48:49.597Z,19.47
2018-11-04T07:51:19.833Z,19.73
2018-11-04T07:53:50.390Z,19.43
2018-11-04T07:56:20.615Z,20.00
2018-11-04T07:58:51.159Z,19.83
2018-11-04T08:01:21.483Z,19.37
2018-11-04T08:03:51.909Z,17.60
2018-11-04T08:06:23.393Z,18.27
2018-11-04T08:08:53.799Z,19.37
2018-11-04T08:11:24.141Z,19.40
2018-11-04T08:13:54.215Z,18.80
2018-11-04T08:16:24.979Z,19.10
2018-11-04T08:18:55.739Z,19.87
2018-11-04T08:21:27.274Z,19.30
2018-11-04T08:23:57.419Z,19.97
2018-11-04T08:26:29.383Z,20.10
2018-11-04T08:28:59.374Z,21.07
2018-11-04T08:31:29.798Z,20.37
2018-11-04T08:34:00.202Z,18.83
2018-11-04T08:36:30.627Z,21.00
2018-11-04T08:39:00.723Z,20.90
2018-11-04T08:41:30.872Z,19.07
2018-11-04T08:44:04.092Z,19.47
2018-11-04T08:46:37.892Z,20.60
2018-11-04T08:49:09.844Z,20.73
2018-11-04T08:51:40.923Z,19.40
2018-11-04T08:54:11.493Z,22.30
2018-11-04T08:56:41.703Z,20.77
2018-11-04T08:59:13.712Z,19.93
2018-11-04T09:01:44.481Z,20.80
2018-11-04T09:04:15.963Z,18.93
2018-11-04T09:06:46.406Z,20.57
2018-11-04T09:09:17.503Z,21.20
2018-11-04T09:11:49.521Z,20.67
2018-11-04T09:14:22.032Z,20.67
2018-11-04T09:16:52.692Z,20.57
2018-11-04T09:19:23.615Z,19.47
2018-11-04T09:21:53.843Z,20.10
2018-11-04T09:24:24.502Z,21.57
2018-11-04T09:26:55.006Z,20.70
2018-11-04T09:29:25.745Z,21.47
2018-11-04T09:31:56.239Z,19.30
2018-11-04T09:34:26.362Z,19.63
2018-11-04T09:36:56.791Z,20.60
2018-11-04T09:39:26.807Z,20.50
2018-11-04T09:41:57.914Z,23.03
2018-11-04T09:44:29.238Z,20.90
2018-11-04T09:47:00.501Z,21.07
2018-11-04T09:49:30.851Z,22.53
2018-11-04T09:52:00.964Z,21.70
2018-11-04T09:54:32.061Z,21.70
2018-11-04T09:57:02.987Z,21.43
2018-11-04T09:59:34.219Z,22.97
2018-11-04T10:02:04.370Z,22.53
2018-11-04T10:04:34.415Z,21.57
2018-11-04T10:07:05.331Z,23.23
2018-11-04T10:09:36.202Z,20.33
2018-11-04T10:12:07.706Z,22.80
2018-11-04T10:14:38.012Z,20.80
2018-11-04T10:17:08.662Z,23.13
2018-11-04T10:19:38.974Z,22.67
2018-11-04T10:22:09.570Z,23.93
2018-11-04T10:24:40.140Z,22.13
2018-11-04T10:27:10.437Z,21.97
2018-11-04T10:29:42.138Z,21.70
2018-11-04T10:32:13.506Z,22.43
2018-11-04T10:34:45.567Z,23.60
2018-11-04T10:37:15.972Z,22.37
2018-11-04T10:39:47.301Z,22.57
2018-11-04T10:42:17.493Z,22.73
2018-11-04T10:44:49.583Z,22.47
2018-11-04T10:47:19.798Z,23.13
2018-11-04T10:49:53.935Z,20.97
2018-11-04T10:52:24.374Z,23.10
2018-11-04T10:54:54.564Z,22.13
2018-11-04T10:57:24.811Z,22.50
2018-11-04T10:59:55.067Z,22.50
2018-11-04T11:02:25.698Z,22.80
2018-11-04T11:04:58.510Z,21.77
2018-11-04T11:07:28.716Z,23.30
2018-11-04T11:09:58.703Z,21.07
2018-11-04T11:12:30.399Z,21.10
2018-11-04T11:15:01.167Z,21.23
2018-11-04T11:17:31.841Z,20.40
2018-11-04T11:20:02.447Z,22.23
2018-11-04T11:22:32.951Z,22.63
2018-11-04T11:25:06.189Z,21.53
2018-11-04T11:27:37.537Z,21.47
2018-11-04T11:30:08.224Z,21.97
2018-11-04T11:32:39.532Z,23.10
2018-11-04T11:35:11.662Z,22.60
2018-11-04T11:37:42.484Z,22.80
2018-11-04T11:40:12.447Z,23.40
2018-11-04T11:42:45.775Z,21.73
2018-11-04T11:45:18.369Z,22.50
2018-11-04T11:47:48.951Z,21.10
2018-11-04T11:50:20.350Z,22.67
2018-11-04T11:52:52.334Z,23.40
2018-11-04T11:55:22.463Z,22.93
2018-11-04T11:57:52.875Z,23.03
2018-11-04T12:00:23.828Z,22.63
2018-11-04T12:02:55.637Z,24.60
2018-11-04T12:05:26.980Z,22.47
2018-11-04T12:07:59.100Z,21.73
2018-11-04T12:10:31.059Z,23.20
2018-11-04T12:13:02.184Z,25.33
2018-11-04T12:15:35.054Z,22.20
2018-11-04T12:18:07.702Z,21.63
2018-11-04T12:20:40.143Z,23.00
2018-11-04T12:23:10.538Z,23.60
2018-11-04T12:25:41.023Z,23.47
2018-11-04T12:28:11.207Z,23.03
2018-11-04T12:30:41.896Z,22.90
2018-11-04T12:33:12.072Z,22.60
2018-11-04T12:35:42.878Z,21.87
2018-11-04T12:38:14.116Z,24.20
2018-11-04T12:40:44.839Z,22.00
2018-11-04T12:43:15.096Z,23.90
2018-11-04T12:45:46.282Z,22.90
2018-11-04T12:48:16.985Z,23.80
2018-11-04T12:50:48.099Z,22.27
2018-11-04T12:53:18.249Z,24.43
2018-11-04T12:55:48.713Z,23.53
2018-11-04T12:58:21.094Z,22.73
2018-11-04T13:00:53.295Z,24.37
2018-11-04T13:03:23.388Z,23.47
2018-11-04T13:05:56.584Z,24.30
2018-11-04T13:08:27.274Z,21.17
2018-11-04T13:11:00.068Z,21.90
2018-11-04T13:13:32.223Z,24.10
2018-11-04T13:16:02.892Z,23.87
2018-11-04T13:18:33.852Z,24.23
2018-11-04T13:21:04.153Z,25.30
2018-11-04T13:23:35.697Z,25.77
2018-11-04T13:26:06.742Z,26.20
2018-11-04T13:28:37.530Z,26.57
2018-11-04T13:31:11.230Z,23.40
2018-11-04T13:37:08.470Z,24.90
2018-11-04T13:39:38.589Z,24.80
2018-11-04T13:42:09.599Z,24.00
2018-11-04T13:44:40.390Z,27.20
2018-11-04T13:47:12.682Z,24.10
2018-11-04T13:49:43.413Z,22.27
2018-11-04T13:52:13.641Z,26.07
2018-11-04T13:54:45.103Z,23.70
2018-11-04T13:57:15.875Z,23.67
2018-11-04T13:59:46.830Z,24.77
2018-11-04T14:02:17.208Z,24.10
2018-11-04T14:04:48.582Z,23.73
2018-11-04T14:07:19.995Z,24.77
2018-11-04T14:09:50.371Z,23.53
2018-11-04T14:12:21.695Z,24.40
2018-11-04T14:14:52.428Z,25.37
2018-11-04T14:17:23.831Z,25.23
2018-11-04T14:19:55.695Z,23.33
2018-11-04T14:22:26.121Z,25.20
2018-11-04T14:24:56.076Z,24.93
2018-11-04T14:27:26.470Z,24.30
2018-11-04T14:30:00.340Z,24.90
2018-11-04T14:32:33.961Z,22.33
2018-11-04T14:35:04.113Z,24.23
2018-11-04T14:37:34.018Z,25.27
2018-11-04T14:40:03.798Z,25.90
2018-11-04T14:42:34.176Z,26.93
2018-11-04T14:45:07.245Z,25.30
2018-11-04T14:47:38.191Z,25.77
2018-11-04T14:50:15.529Z,25.17
2018-11-04T14:52:46.502Z,25.30
2018-11-04T14:55:17.491Z,25.03
2018-11-04T14:57:48.513Z,24.40
2018-11-04T15:00:19.681Z,25.20
2018-11-04T15:02:49.700Z,24.67
2018-11-04T15:05:20.035Z,24.20
2018-11-04T15:07:51.203Z,24.07
2018-11-04T15:10:21.487Z,23.90
2018-11-04T15:12:52.319Z,23.30
2018-11-04T15:15:24.048Z,25.83
2018-11-04T15:17:55.730Z,24.00
2018-11-04T15:20:26.419Z,22.00
2018-11-04T15:22:58.063Z,24.27
2018-11-04T15:25:27.980Z,24.20
2018-11-04T15:27:58.353Z,22.90
2018-11-04T15:30:31.643Z,21.93
2018-11-04T15:33:03.565Z,24.00
2018-11-04T15:35:34.460Z,21.33
2018-11-04T15:38:05.894Z,24.07
2018-11-04T15:40:49.916Z,21.63
2018-11-04T15:43:22.595Z,22.77
2018-11-04T15:45:55.856Z,21.57
2018-11-04T15:48:26.191Z,23.03
2018-11-04T15:50:56.384Z,24.17
2018-11-04T15:53:26.918Z,23.87
2018-11-04T15:55:58.745Z,23.20
2018-11-04T15:58:31.474Z,22.70
2018-11-04T16:01:01.923Z,22.70
2018-11-04T16:03:33.088Z,21.10
2018-11-04T16:06:04.436Z,21.67
2018-11-04T16:08:35.985Z,21.63
2018-11-04T16:11:06.679Z,23.03
2018-11-04T16:13:37.802Z,21.80
2018-11-04T16:16:08.360Z,20.97
2018-11-04T16:18:38.912Z,21.07
2018-11-04T16:21:11.524Z,21.27
2018-11-04T16:23:42.321Z,21.10
2018-11-04T16:26:12.999Z,21.47
2018-11-04T16:28:43.068Z,22.23
2018-11-04T16:31:17.795Z,21.37
2018-11-04T16:33:47.766Z,19.90
2018-11-04T16:36:18.352Z,21.23
2018-11-04T16:38:48.529Z,21.93
2018-11-04T16:41:20.494Z,22.20
2018-11-04T16:43:54.767Z,21.20
2018-11-04T16:46:25.695Z,20.90
2018-11-04T16:48:56.590Z,23.33
2018-11-04T16:51:38.820Z,21.80
2018-11-04T16:54:24.913Z,22.53
2018-11-04T16:56:57.538Z,22.87
2018-11-04T16:59:29.350Z,23.83
2018-11-04T17:02:02.844Z,24.77
2018-11-04T17:04:37.615Z,26.60
2018-11-04T17:07:08.869Z,23.77
2018-11-04T17:09:39.009Z,27.43
2018-11-04T17:12:10.657Z,26.77
2018-11-04T17:14:42.218Z,27.90
2018-11-04T17:17:12.624Z,26.90
2018-11-04T17:19:44.122Z,30.00
2018-11-04T17:22:15.459Z,28.33
2018-11-04T17:24:45.660Z,27.70
2018-11-04T17:27:16.696Z,33.97
2018-11-04T17:29:47.987Z,34.57
2018-11-04T17:32:18.388Z,37.40
2018-11-04T17:34:49.297Z,29.70
2018-11-04T17:37:20.630Z,36.87
2018-11-04T17:39:51.432Z,31.20
2018-11-04T17:42:21.854Z,32.90
2018-11-04T17:44:54.493Z,30.40
2018-11-04T17:47:25.026Z,28.27
2018-11-04T17:49:56.129Z,25.10
2018-11-04T17:52:27.331Z,24.27
2018-11-04T17:54:57.927Z,21.80
2018-11-04T17:57:27.889Z,24.33
2018-11-04T17:59:59.322Z,25.63
2018-11-04T18:02:29.471Z,27.43
2018-11-04T18:05:00.471Z,27.20
2018-11-04T18:07:33.674Z,27.60
2018-11-04T18:10:05.463Z,26.33
2018-11-04T18:12:36.900Z,23.60
2018-11-04T18:15:09.954Z,27.50
2018-11-04T18:17:42.633Z,28.17
2018-11-04T18:20:15.182Z,26.80
2018-11-04T18:22:50.589Z,25.67
2018-11-04T18:25:25.836Z,24.73
2018-11-04T18:27:57.567Z,22.33
2018-11-04T18:30:29.106Z,22.60
2018-11-04T18:33:02.425Z,24.10
2018-11-04T18:35:34.409Z,24.23
2018-11-04T18:38:06.503Z,22.33
2018-11-04T18:40:36.800Z,24.50
2018-11-04T18:43:09.238Z,22.97
2018-11-04T18:45:39.510Z,23.07
2018-11-04T18:48:09.886Z,22.00
2018-11-04T18:50:40.364Z,21.67
2018-11-04T18:53:14.305Z,21.83
2018-11-04T18:55:45.091Z,21.60
2018-11-04T18:58:15.722Z,21.50
2018-11-04T19:00:47.387Z,21.00
2018-11-04T19:03:17.855Z,20.77
2018-11-04T19:05:48.116Z,22.10
2018-11-04T19:08:18.490Z,22.00
2018-11-04T19:10:50.493Z,21.90
2018-11-04T19:13:21.756Z,23.67
2018-11-04T19:15:51.878Z,25.27
2018-11-04T19:18:22.361Z,18.30
2018-11-04T19:20:53.024Z,18.50
2018-11-04T19:23:25.302Z,17.67
2018-11-04T19:25:58.648Z,16.57
2018-11-04T19:28:29.954Z,16.00
2018-11-04T19:31:00.778Z,17.17
2018-11-04T19:33:31.833Z,17.40
2018-11-04T19:36:01.863Z,18.00
2018-11-04T19:38:35.200Z,17.80
2018-11-04T19:41:06.219Z,16.87
2018-11-04T19:43:38.129Z,16.07
2018-11-04T19:46:11.006Z,16.03
2018-11-04T19:48:41.730Z,16.40
2018-11-04T19:51:13.024Z,14.00
2018-11-04T19:53:43.176Z,15.67
2018-11-04T19:56:13.356Z,14.90
2018-11-04T19:58:44.437Z,14.60
2018-11-04T20:01:15.996Z,15.23
2018-11-04T20:03:46.097Z,14.87
2018-11-04T20:06:17.407Z,16.80
2018-11-04T20:08:53.111Z,14.80
2018-11-04T20:11:23.260Z,14.00
2018-11-04T20:14:04.557Z,14.00
2018-11-04T20:16:34.555Z,14.77
2018-11-04T20:19:11.619Z,15.00
2018-11-04T20:21:43.540Z,13.10
2018-11-04T20:24:18.922Z,13.80
2018-11-04T20:26:50.507Z,13.03
2018-11-04T20:29:21.067Z,12.13
2018-11-04T20:31:56.784Z,13.00
2018-11-04T20:34:29.491Z,14.17
2018-11-04T20:36:59.883Z,11.53
2018-11-04T20:39:35.106Z,11.23
2018-11-04T20:42:05.487Z,12.40
2018-11-04T20:44:42.315Z,12.63
2018-11-04T20:47:13.587Z,11.90
2018-11-04T20:49:51.075Z,12.73
2018-11-04T20:52:21.233Z,11.47
2018-11-04T20:54:51.347Z,12.33
2018-11-04T20:57:27.637Z,12.63
2018-11-04T20:59:57.797Z,11.87
2018-11-04T21:02:29.879Z,12.27
2018-11-04T21:05:01.059Z,11.20
2018-11-04T21:07:31.405Z,11.00
2018-11-04T21:10:02.003Z,10.90
2018-11-04T21:12:33.434Z,11.00
2018-11-04T21:15:04.467Z,10.47
2018-11-04T21:17:34.858Z,11.00
2018-11-04T21:20:05.292Z,11.70
2018-11-04T21:22:37.207Z,10.40
2018-11-04T21:25:09.536Z,10.40
2018-11-04T21:27:39.842Z,9.50
2018-11-04T21:30:12.231Z,9.07
2018-11-04T21:32:42.639Z,10.50
2018-11-04T21:35:15.360Z,10.73
2018-11-04T21:37:47.054Z,9.20
2018-11-04T21:40:18.351Z,8.90
2018-11-04T21:42:49.452Z,9.47
2018-11-04T21:45:19.353Z,9.57
2018-11-04T21:47:51.032Z,8.60
2018-11-04T21:50:21.679Z,9.30
2018-11-04T21:52:52.475Z,9.60
2018-11-04T21:55:22.562Z,8.60
2018-11-04T21:57:53.804Z,8.87
2018-11-04T22:00:25.787Z,9.33
2018-11-04T22:02:57.782Z,9.80
2018-11-04T22:05:27.874Z,9.07
2018-11-04T22:07:58.433Z,9.50
2018-11-04T22:10:29.321Z,9.37
2018-11-04T22:12:59.568Z,9.73
2018-11-04T22:15:29.713Z,10.57
2018-11-04T22:18:00.185Z,8.83
2018-11-04T22:20:31.635Z,9.63
2018-11-04T22:23:01.986Z,9.53
2018-11-04T22:25:32.255Z,9.70
2018-11-04T22:28:02.617Z,9.47
2018-11-04T22:30:32.738Z,9.20
2018-11-04T22:33:05.974Z,9.87
2018-11-04T22:35:37.265Z,9.47
2018-11-04T22:38:08.359Z,8.60
2018-11-04T22:40:38.375Z,8.87
2018-11-04T22:43:08.639Z,10.00
2018-11-04T22:45:40.897Z,8.53
2018-11-04T22:48:11.731Z,8.40
2018-11-04T22:50:41.682Z,8.87
2018-11-04T22:53:13.114Z,9.30
2018-11-04T22:55:44.229Z,9.40
2018-11-04T22:58:14.542Z,9.20
2018-11-04T23:00:45.911Z,9.60
2018-11-04T23:03:16.078Z,9.53
2018-11-04T23:05:46.722Z,9.67
2018-11-04T23:08:16.766Z,9.67
2018-11-04T23:10:46.800Z,9.57
2018-11-04T23:13:16.783Z,9.80
2018-11-04T23:15:47.009Z,9.90
2018-11-04T23:18:17.474Z,10.13
2018-11-04T23:20:48.638Z,10.77
2018-11-04T23:23:18.727Z,10.17
2018-11-04T23:25:52.177Z,10.17
2018-11-04T23:28:22.063Z,10.20
2018-11-04T23:30:52.508Z,8.90
2018-11-04T23:33:23.077Z,8.67
2018-11-04T23:35:53.176Z,10.07
2018-11-04T23:38:23.139Z,10.00
2018-11-04T23:40:53.188Z,9.83
2018-11-04T23:43:23.555Z,9.40
2018-11-04T23:45:55.778Z,9.20
2018-11-04T23:48:28.123Z,10.30
2018-11-04T23:50:58.559Z,10.00
2018-11-04T23:53:29.528Z,10.00
2018-11-04T23:56:00.032Z,9.03
2018-11-04T23:58:30.329Z,9.63
